createdAt,value
2018-06-25T00:01:28.937Z,11.43
2018-06-25T00:03:57.583Z,5.43
2018-06-25T00:06:26.155Z,10.03
2018-06-25T00:08:54.673Z,8.20
2018-06-25T00:11:23.199Z,11.20
2018-06-25T00:13:51.728Z,6.90
2018-06-25T00:16:20.234Z,11.60
2018-06-25T00:18:48.767Z,7.23
2018-06-25T00:21:17.310Z,12.43
2018-06-25T00:23:45.802Z,7.40
2018-06-25T00:26:13.991Z,9.73
2018-06-25T00:28:42.195Z,13.80
2018-06-25T00:31:10.670Z,9.17
2018-06-25T00:33:39.349Z,9.63
2018-06-25T00:36:07.948Z,10.10
2018-06-25T00:38:36.577Z,9.67
2018-06-25T00:41:05.101Z,5.97
2018-06-25T00:43:33.335Z,11.00
2018-06-25T00:46:01.859Z,12.33
2018-06-25T00:48:30.167Z,11.63
2018-06-25T00:50:58.692Z,10.10
2018-06-25T00:53:27.234Z,10.87
2018-06-25T00:55:55.714Z,9.23
2018-06-25T00:58:23.913Z,15.03
2018-06-25T01:00:52.416Z,17.30
2018-06-25T01:03:20.929Z,6.63
2018-06-25T01:05:49.529Z,21.33
2018-06-25T01:08:17.775Z,11.33
2018-06-25T01:10:46.268Z,7.00
2018-06-25T01:13:14.751Z,11.60
2018-06-25T01:15:43.294Z,12.53
2018-06-25T01:18:11.806Z,9.93
2018-06-25T01:20:40.479Z,10.23
2018-06-25T01:23:08.930Z,9.57
2018-06-25T01:25:37.443Z,10.27
2018-06-25T01:28:05.976Z,10.93
2018-06-25T01:30:34.504Z,11.07
2018-06-25T01:33:02.737Z,9.77
2018-06-25T01:35:31.300Z,8.90
2018-06-25T01:37:59.802Z,11.83
2018-06-25T01:40:28.344Z,13.10
2018-06-25T01:42:56.565Z,9.73
2018-06-25T01:45:25.126Z,7.17
2018-06-25T01:47:53.618Z,9.40
2018-06-25T01:50:22.218Z,7.90
2018-06-25T01:52:50.897Z,10.27
2018-06-25T01:55:19.374Z,11.27
2018-06-25T01:57:48.244Z,8.50
2018-06-25T02:00:16.775Z,10.30
2018-06-25T02:02:45.307Z,9.70
2018-06-25T02:05:13.832Z,13.00
2018-06-25T02:07:42.315Z,10.37
2018-06-25T02:10:10.822Z,14.80
2018-06-25T02:12:39.300Z,13.63
2018-06-25T02:15:08.113Z,10.03
2018-06-25T02:17:36.650Z,6.17
2018-06-25T02:20:05.238Z,13.40
2018-06-25T02:22:33.456Z,12.60
2018-06-25T02:25:01.928Z,15.97
2018-06-25T02:27:30.399Z,6.23
2018-06-25T02:29:58.880Z,12.97
2018-06-25T02:32:27.094Z,13.20
2018-06-25T02:34:55.590Z,11.60
2018-06-25T02:37:24.075Z,8.10
2018-06-25T02:39:52.552Z,12.67
2018-06-25T02:42:21.033Z,14.60
2018-06-25T02:44:49.511Z,9.63
2018-06-25T02:47:17.974Z,11.37
2018-06-25T02:49:46.493Z,11.47
2018-06-25T02:52:14.963Z,12.13
2018-06-25T02:54:43.456Z,11.83
2018-06-25T02:57:11.920Z,11.93
2018-06-25T02:59:40.101Z,12.07
2018-06-25T03:02:08.555Z,9.40
2018-06-25T03:04:37.056Z,28.67
2018-06-25T03:07:05.576Z,11.77
2018-06-25T03:09:34.039Z,7.30
2018-06-25T03:12:02.186Z,11.80
2018-06-25T03:14:30.649Z,14.33
2018-06-25T03:16:59.114Z,11.47
2018-06-25T03:19:27.575Z,15.70
2018-06-25T03:21:56.070Z,11.70
2018-06-25T03:24:24.557Z,14.90
2018-06-25T03:26:53.022Z,12.87
2018-06-25T03:29:21.504Z,12.97
2018-06-25T03:31:49.937Z,17.53
2018-06-25T03:34:18.438Z,13.90
2018-06-25T03:36:46.898Z,8.57
2018-06-25T03:39:15.381Z,19.30
2018-06-25T03:41:43.835Z,13.73
2018-06-25T03:44:12.029Z,11.93
2018-06-25T03:46:40.493Z,11.57
2018-06-25T03:49:09.067Z,11.50
2018-06-25T03:51:37.585Z,13.27
2018-06-25T03:54:06.047Z,7.93
2018-06-25T03:56:34.547Z,8.37
2018-06-25T03:59:03.132Z,17.00
2018-06-25T04:01:31.325Z,13.77
2018-06-25T04:03:59.801Z,10.87
2018-06-25T04:06:28.049Z,13.17
2018-06-25T04:08:56.519Z,11.80
2018-06-25T04:11:25.026Z,11.83
2018-06-25T04:13:53.489Z,17.90
2018-06-25T04:16:21.979Z,9.57
2018-06-25T04:18:57.730Z,10.97
2018-06-25T04:21:26.218Z,10.40
2018-06-25T04:23:54.687Z,8.20
2018-06-25T04:26:23.184Z,15.70
2018-06-25T04:28:51.637Z,13.13
2018-06-25T04:31:20.109Z,7.80
2018-06-25T04:33:48.582Z,12.93
2018-06-25T04:36:18.213Z,11.63
2018-06-25T04:38:46.707Z,13.03
2018-06-25T04:41:15.512Z,14.90
2018-06-25T04:43:44.053Z,14.03
2018-06-25T04:46:12.565Z,14.20
2018-06-25T04:48:41.716Z,11.47
2018-06-25T04:51:10.275Z,13.50
2018-06-25T04:53:39.804Z,14.10
2018-06-25T04:56:08.266Z,20.03
2018-06-25T04:58:36.847Z,10.10
2018-06-25T05:01:05.378Z,11.13
2018-06-25T05:03:33.836Z,19.63
2018-06-25T05:06:02.366Z,16.23
2018-06-25T05:08:30.888Z,11.93
2018-06-25T05:10:59.323Z,9.77
2018-06-25T05:13:27.800Z,12.97
2018-06-25T05:15:56.247Z,16.27
2018-06-25T05:18:24.789Z,14.87
2018-06-25T05:20:53.280Z,9.77
2018-06-25T05:23:21.813Z,10.50
2018-06-25T05:25:50.297Z,17.63
2018-06-25T05:28:18.770Z,19.03
2018-06-25T05:30:47.253Z,14.30
2018-06-25T05:33:16.008Z,18.03
2018-06-25T05:35:44.467Z,15.73
2018-06-25T05:38:12.981Z,12.67
2018-06-25T05:40:41.151Z,23.47
2018-06-25T05:43:09.701Z,17.10
2018-06-25T05:45:38.203Z,12.43
2018-06-25T05:48:06.765Z,22.67
2018-06-25T05:50:35.328Z,13.03
2018-06-25T05:53:03.816Z,11.00
2018-06-25T05:55:32.277Z,17.00
2018-06-25T05:58:00.810Z,15.27
2018-06-25T06:00:29.308Z,13.60
2018-06-25T06:02:57.793Z,13.23
2018-06-25T06:05:26.283Z,14.37
2018-06-25T06:07:54.841Z,10.77
2018-06-25T06:10:23.352Z,16.57
2018-06-25T06:12:51.846Z,9.87
2018-06-25T06:15:20.321Z,10.87
2018-06-25T06:17:48.802Z,15.60
2018-06-25T06:20:17.267Z,12.93
2018-06-25T06:22:45.748Z,22.10
2018-06-25T06:25:14.232Z,16.43
2018-06-25T06:27:42.417Z,16.90
2018-06-25T06:30:10.967Z,19.07
2018-06-25T06:32:39.436Z,21.60
2018-06-25T06:35:07.948Z,18.73
2018-06-25T06:37:36.585Z,12.90
2018-06-25T06:40:05.142Z,19.63
2018-06-25T06:42:33.668Z,12.63
2018-06-25T06:45:02.152Z,19.30
2018-06-25T06:47:30.612Z,20.63
2018-06-25T06:49:58.842Z,15.37
2018-06-25T06:52:27.366Z,16.93
2018-06-25T06:54:55.528Z,13.03
2018-06-25T06:57:24.022Z,23.73
2018-06-25T06:59:52.467Z,19.83
2018-06-25T07:02:20.982Z,22.37
2018-06-25T07:04:49.459Z,15.73
2018-06-25T07:07:18.015Z,13.87
2018-06-25T07:09:46.494Z,26.03
2018-06-25T07:12:14.972Z,20.33
2018-06-25T07:14:43.438Z,16.37
2018-06-25T07:17:11.921Z,14.67
2018-06-25T07:19:40.407Z,25.27
2018-06-25T07:22:09.361Z,24.17
2018-06-25T07:24:37.818Z,33.00
2018-06-25T07:27:06.323Z,25.37
2018-06-25T07:29:34.839Z,28.37
2018-06-25T07:32:03.320Z,17.67
2018-06-25T07:34:31.905Z,24.00
2018-06-25T07:37:00.413Z,22.77
2018-06-25T07:39:28.899Z,20.87
2018-06-25T07:41:57.051Z,33.87
2018-06-25T07:44:25.558Z,23.43
2018-06-25T07:46:53.985Z,32.47
2018-06-25T07:49:22.475Z,25.83
2018-06-25T07:51:50.945Z,20.87
2018-06-25T07:54:19.452Z,26.83
2018-06-25T07:56:47.932Z,29.03
2018-06-25T07:59:16.439Z,28.00
2018-06-25T08:01:44.903Z,35.37
2018-06-25T08:04:13.406Z,35.13
2018-06-25T08:06:42.793Z,22.83
2018-06-25T08:09:12.805Z,24.03
2018-06-25T08:11:42.795Z,28.90
2018-06-25T08:14:13.251Z,29.73
2018-06-25T08:16:41.774Z,38.10
2018-06-25T08:19:10.239Z,21.97
2018-06-25T08:21:38.732Z,26.47
2018-06-25T08:24:07.493Z,27.43
2018-06-25T08:26:36.479Z,28.07
2018-06-25T08:29:05.203Z,32.13
2018-06-25T08:31:33.695Z,30.10
2018-06-25T08:34:02.411Z,19.57
2018-06-25T08:36:30.910Z,25.30
2018-06-25T08:38:59.472Z,24.00
2018-06-25T08:41:28.079Z,19.37
2018-06-25T08:43:56.606Z,25.23
2018-06-25T08:46:25.133Z,22.10
2018-06-25T08:48:53.621Z,24.00
2018-06-25T08:51:22.126Z,23.53
2018-06-25T08:53:50.663Z,25.83
2018-06-25T08:56:19.226Z,27.23
2018-06-25T08:58:47.738Z,16.80
2018-06-25T09:01:16.253Z,22.90
2018-06-25T09:03:44.751Z,19.27
2018-06-25T09:06:13.297Z,16.50
2018-06-25T09:08:41.736Z,20.00
2018-06-25T09:11:10.258Z,17.90
2018-06-25T09:13:38.680Z,23.37
2018-06-25T09:16:07.311Z,15.93
2018-06-25T09:18:35.525Z,17.00
2018-06-25T09:21:04.010Z,17.83
2018-06-25T09:23:32.469Z,23.23
2018-06-25T09:26:07.465Z,21.33
2018-06-25T09:28:36.209Z,25.27
2018-06-25T09:31:04.894Z,28.20
2018-06-25T09:33:33.491Z,22.53
2018-06-25T09:36:01.996Z,22.03
2018-06-25T09:38:31.216Z,21.93
2018-06-25T09:40:59.737Z,22.93
2018-06-25T09:43:28.258Z,13.57
2018-06-25T09:45:57.129Z,18.30
2018-06-25T09:48:25.520Z,19.83
2018-06-25T09:50:54.026Z,22.47
2018-06-25T09:53:23.134Z,15.73
2018-06-25T09:55:51.647Z,21.97
2018-06-25T09:58:20.150Z,19.17
2018-06-25T10:00:53.978Z,16.73
2018-06-25T10:03:22.552Z,17.83
2018-06-25T10:05:51.106Z,11.30
2018-06-25T10:08:19.678Z,20.37
2018-06-25T10:10:48.158Z,14.63
2018-06-25T10:13:16.770Z,22.07
2018-06-25T10:15:45.228Z,20.40
2018-06-25T10:18:13.682Z,19.93
2018-06-25T10:20:41.889Z,18.13
2018-06-25T10:23:10.376Z,11.37
2018-06-25T10:25:38.927Z,21.67
2018-06-25T10:28:07.134Z,20.50
2018-06-25T10:30:35.599Z,19.07
2018-06-25T10:33:03.785Z,21.20
2018-06-25T10:35:32.263Z,21.03
2018-06-25T10:38:00.431Z,15.97
2018-06-25T10:40:28.948Z,15.97
2018-06-25T10:42:57.495Z,17.73
2018-06-25T10:45:26.001Z,20.27
2018-06-25T10:47:54.493Z,17.43
2018-06-25T10:50:23.081Z,22.73
2018-06-25T10:52:51.616Z,22.10
2018-06-25T10:55:20.136Z,21.13
2018-06-25T10:57:48.579Z,19.53
2018-06-25T11:00:17.171Z,18.50
2018-06-25T11:02:45.601Z,16.47
2018-06-25T11:05:13.915Z,19.57
2018-06-25T11:07:42.486Z,16.53
2018-06-25T11:10:11.069Z,26.85
2018-06-25T11:12:39.639Z,19.90
2018-06-25T11:15:08.116Z,19.13
2018-06-25T11:17:36.673Z,19.87
2018-06-25T11:20:05.281Z,19.80
2018-06-25T11:22:34.444Z,13.43
2018-06-25T11:25:02.950Z,18.17
2018-06-25T11:27:31.533Z,20.97
2018-06-25T11:30:00.188Z,17.67
2018-06-25T11:32:28.693Z,14.30
2018-06-25T11:34:57.187Z,25.27
2018-06-25T11:37:25.817Z,14.90
2018-06-25T11:39:54.339Z,22.53
2018-06-25T11:42:22.878Z,19.53
2018-06-25T11:44:51.350Z,21.93
2018-06-25T11:47:20.101Z,14.37
2018-06-25T11:49:48.583Z,14.40
2018-06-25T11:52:17.270Z,17.17
2018-06-25T11:54:45.888Z,12.17
2018-06-25T11:57:14.474Z,18.27
2018-06-25T11:59:42.982Z,16.40
2018-06-25T12:02:11.496Z,14.00
2018-06-25T12:04:39.653Z,20.90
2018-06-25T12:07:08.377Z,14.70
2018-06-25T12:09:36.557Z,21.23
2018-06-25T12:12:05.133Z,18.73
2018-06-25T12:14:33.596Z,28.50
2018-06-25T12:17:02.109Z,20.70
2018-06-25T12:19:30.796Z,18.33
2018-06-25T12:21:59.291Z,20.30
2018-06-25T12:24:27.757Z,20.40
2018-06-25T12:26:56.246Z,16.73
2018-06-25T12:29:24.794Z,18.57
2018-06-25T12:31:53.353Z,14.73
2018-06-25T12:34:21.862Z,22.40
2018-06-25T12:36:51.873Z,17.97
2018-06-25T12:39:20.922Z,16.87
2018-06-25T12:41:50.148Z,12.53
2018-06-25T12:44:18.653Z,20.50
2018-06-25T12:46:47.180Z,16.70
2018-06-25T12:49:16.046Z,20.47
2018-06-25T12:51:46.704Z,18.33
2018-06-25T12:54:16.058Z,19.03
2018-06-25T12:56:45.345Z,15.23
2018-06-25T12:59:15.231Z,17.43
2018-06-25T13:01:44.251Z,14.17
2018-06-25T13:04:13.596Z,28.43
2018-06-25T13:06:42.137Z,20.73
2018-06-25T13:09:12.572Z,18.77
2018-06-25T13:11:41.135Z,17.37
2018-06-25T13:14:09.734Z,20.57
2018-06-25T13:16:38.291Z,11.80
2018-06-25T13:19:07.058Z,15.77
2018-06-25T13:21:35.550Z,18.77
2018-06-25T13:24:04.050Z,22.40
2018-06-25T13:26:32.658Z,12.90
2018-06-25T13:29:01.154Z,14.30
2018-06-25T13:31:29.627Z,14.50
2018-06-25T13:33:58.104Z,16.60
2018-06-25T13:36:26.583Z,17.90
2018-06-25T13:38:55.074Z,15.77
2018-06-25T13:41:23.706Z,18.17
2018-06-25T13:43:52.198Z,12.90
2018-06-25T13:46:20.699Z,13.87
2018-06-25T13:48:48.869Z,19.53
2018-06-25T13:51:17.144Z,17.17
2018-06-25T13:53:45.647Z,17.33
2018-06-25T13:56:13.817Z,13.90
2018-06-25T13:58:42.346Z,15.00
2018-06-25T14:01:11.291Z,12.03
2018-06-25T14:03:39.546Z,13.07
2018-06-25T14:06:08.045Z,12.30
2018-06-25T14:08:49.165Z,21.23
2018-06-25T14:11:17.627Z,15.47
2018-06-25T14:13:45.836Z,12.40
2018-06-25T14:16:14.368Z,18.90
2018-06-25T14:18:42.944Z,14.30
2018-06-25T14:21:11.448Z,19.83
2018-06-25T14:23:44.147Z,13.27
2018-06-25T14:26:12.620Z,16.53
2018-06-25T14:28:41.156Z,18.60
2018-06-25T14:31:14.877Z,18.63
2018-06-25T14:33:48.574Z,19.10
2018-06-25T14:36:17.058Z,20.03
2018-06-25T14:38:45.566Z,13.97
2018-06-25T14:41:14.034Z,16.87
2018-06-25T14:43:42.583Z,13.03
2018-06-25T14:46:10.698Z,13.33
2018-06-25T14:48:39.174Z,11.50
2018-06-25T14:51:07.821Z,14.70
2018-06-25T14:53:36.437Z,11.90
2018-06-25T14:56:05.449Z,16.87
2018-06-25T14:58:33.665Z,20.20
2018-06-25T15:01:02.170Z,22.70
2018-06-25T15:03:30.655Z,18.63
2018-06-25T15:05:59.126Z,16.50
2018-06-25T15:08:27.586Z,15.50
2018-06-25T15:10:56.167Z,20.17
2018-06-25T15:13:24.655Z,17.50
2018-06-25T15:15:53.182Z,16.23
2018-06-25T15:18:21.702Z,15.80
2018-06-25T15:20:50.244Z,13.77
2018-06-25T15:23:18.680Z,27.93
2018-06-25T15:25:47.202Z,21.93
2018-06-25T15:28:15.834Z,19.87
2018-06-25T15:30:44.036Z,23.67
2018-06-25T15:33:12.484Z,25.17
2018-06-25T15:35:40.971Z,13.77
2018-06-25T15:38:09.463Z,20.20
2018-06-25T15:40:37.978Z,15.87
2018-06-25T15:43:06.508Z,14.20
2018-06-25T15:45:35.300Z,14.50
2018-06-25T15:48:04.775Z,20.93
2018-06-25T15:50:33.513Z,17.10
2018-06-25T15:53:02.178Z,20.37
2018-06-25T15:55:30.836Z,15.23
2018-06-25T15:57:59.365Z,19.60
2018-06-25T16:00:27.980Z,15.43
2018-06-25T16:02:56.615Z,15.43
2018-06-25T16:05:25.382Z,16.07
2018-06-25T16:07:54.481Z,14.20
2018-06-25T16:10:22.951Z,12.43
2018-06-25T16:12:51.149Z,12.73
2018-06-25T16:15:20.679Z,10.30
2018-06-25T16:17:49.206Z,14.63
2018-06-25T16:20:17.707Z,13.90
2018-06-25T16:22:46.394Z,8.47
2018-06-25T16:25:15.156Z,12.40
2018-06-25T16:27:43.751Z,12.23
2018-06-25T16:30:12.210Z,11.97
2018-06-25T16:32:40.767Z,11.83
2018-06-25T16:35:09.255Z,14.63
2018-06-25T16:37:37.785Z,15.37
2018-06-25T16:40:06.269Z,15.07
2018-06-25T16:42:34.855Z,10.80
2018-06-25T16:45:03.409Z,15.83
2018-06-25T16:47:31.938Z,14.83
2018-06-25T16:50:00.555Z,11.30
2018-06-25T16:52:29.402Z,11.53
2018-06-25T16:54:57.994Z,9.70
2018-06-25T16:57:26.542Z,14.23
2018-06-25T16:59:54.782Z,13.23
2018-06-25T17:02:23.377Z,16.87
2018-06-25T17:04:51.838Z,7.90
2018-06-25T17:07:20.440Z,11.80
2018-06-25T17:09:48.938Z,8.87
2018-06-25T17:12:17.435Z,10.53
2018-06-25T17:14:46.176Z,12.83
2018-06-25T17:17:14.989Z,12.03
2018-06-25T17:19:43.510Z,10.50
2018-06-25T17:22:13.021Z,11.00
2018-06-25T17:24:41.520Z,7.53
2018-06-25T17:27:09.990Z,8.20
2018-06-25T17:29:38.489Z,6.40
2018-06-25T17:32:06.695Z,10.10
2018-06-25T17:34:35.148Z,8.70
2018-06-25T17:37:03.686Z,8.77
2018-06-25T17:39:32.175Z,8.03
2018-06-25T17:42:00.648Z,6.43
2018-06-25T17:44:29.106Z,6.30
2018-06-25T17:46:57.263Z,8.70
2018-06-25T17:49:25.734Z,13.80
2018-06-25T17:51:54.234Z,10.40
2018-06-25T17:54:22.724Z,16.30
2018-06-25T17:56:51.055Z,13.80
2018-06-25T17:59:19.711Z,12.27
2018-06-25T18:01:48.416Z,14.93
2018-06-25T18:04:16.913Z,13.20
2018-06-25T18:06:45.490Z,16.90
2018-06-25T18:09:14.034Z,14.30
2018-06-25T18:11:42.526Z,16.80
2018-06-25T18:14:11.043Z,11.77
2018-06-25T18:16:39.528Z,13.40
2018-06-25T18:19:07.987Z,19.87
2018-06-25T18:21:36.170Z,14.50
2018-06-25T18:24:04.779Z,16.70
2018-06-25T18:26:32.949Z,16.47
2018-06-25T18:29:01.450Z,14.03
2018-06-25T18:31:30.000Z,21.90
2018-06-25T18:33:58.513Z,23.77
2018-06-25T18:36:27.006Z,24.53
2018-06-25T18:38:55.522Z,20.57
2018-06-25T18:41:23.994Z,13.20
2018-06-25T18:43:52.513Z,13.37
2018-06-25T18:46:20.960Z,19.63
2018-06-25T18:48:49.467Z,13.87
2018-06-25T18:51:18.028Z,16.27
2018-06-25T18:53:46.481Z,17.77
2018-06-25T18:56:14.938Z,22.50
2018-06-25T18:58:43.420Z,17.93
2018-06-25T19:01:11.892Z,20.20
2018-06-25T19:03:40.390Z,20.33
2018-06-25T19:06:08.854Z,20.90
2018-06-25T19:08:37.321Z,24.93
2018-06-25T19:11:05.815Z,19.17
2018-06-25T19:13:34.315Z,15.17
2018-06-25T19:16:02.764Z,22.37
2018-06-25T19:18:31.268Z,25.50
2018-06-25T19:20:59.704Z,13.47
2018-06-25T19:23:28.292Z,11.03
2018-06-25T19:25:56.726Z,13.30
2018-06-25T19:28:25.146Z,18.80
2018-06-25T19:30:53.710Z,11.13
2018-06-25T19:33:22.213Z,25.43
2018-06-25T19:35:50.747Z,18.87
2018-06-25T19:38:18.931Z,14.93
2018-06-25T19:40:47.144Z,19.57
2018-06-25T19:43:15.658Z,14.67
2018-06-25T19:45:44.135Z,27.40
2018-06-25T19:48:12.614Z,20.53
2018-06-25T19:50:41.328Z,14.67
2018-06-25T19:53:09.845Z,16.00
2018-06-25T19:55:38.323Z,16.77
2018-06-25T19:58:06.472Z,15.50
2018-06-25T20:00:34.958Z,15.50
2018-06-25T20:03:03.393Z,14.30
2018-06-25T20:05:32.571Z,14.00
2018-06-25T20:08:01.015Z,15.60
2018-06-25T20:10:29.496Z,12.73
2018-06-25T20:12:58.075Z,21.47
2018-06-25T20:15:26.570Z,11.30
2018-06-25T20:17:55.165Z,16.07
2018-06-25T20:20:23.607Z,13.20
2018-06-25T20:22:52.957Z,14.97
2018-06-25T20:25:21.556Z,16.00
2018-06-25T20:27:50.018Z,16.40
2018-06-25T20:30:18.478Z,15.67
2018-06-25T20:32:46.985Z,18.93
2018-06-25T20:35:15.794Z,19.30
2018-06-25T20:37:44.340Z,12.93
2018-06-25T20:40:12.802Z,19.93
2018-06-25T20:42:41.159Z,15.80
2018-06-25T20:45:09.689Z,20.70
2018-06-25T20:47:38.200Z,18.93
2018-06-25T20:50:06.852Z,15.90
2018-06-25T20:52:35.578Z,14.63
2018-06-25T20:55:04.244Z,20.40
2018-06-25T20:57:32.791Z,24.63
2018-06-25T21:00:01.500Z,15.33
2018-06-25T21:02:29.984Z,21.50
2018-06-25T21:04:58.838Z,13.87
2018-06-25T21:07:27.343Z,25.73
2018-06-25T21:09:55.928Z,23.27
2018-06-25T21:12:24.604Z,14.53
2018-06-25T21:14:53.229Z,12.77
2018-06-25T21:17:21.702Z,16.30
2018-06-25T21:19:50.292Z,15.57
2018-06-25T21:22:18.748Z,20.07
2018-06-25T21:24:47.259Z,17.83
2018-06-25T21:27:15.682Z,12.33
2018-06-25T21:29:44.167Z,21.40
2018-06-25T21:32:12.369Z,9.90
2018-06-25T21:34:40.876Z,12.73
2018-06-25T21:37:09.610Z,13.77
2018-06-25T21:39:38.107Z,19.00
2018-06-25T21:42:13.581Z,12.33
2018-06-25T21:44:42.141Z,11.47
2018-06-25T21:47:10.403Z,21.27
2018-06-25T21:49:39.089Z,16.80
2018-06-25T21:52:07.628Z,14.43
2018-06-25T21:54:36.134Z,12.30
2018-06-25T21:57:04.703Z,14.73
2018-06-25T21:59:33.227Z,19.70
2018-06-25T22:02:01.675Z,14.27
2018-06-25T22:04:30.514Z,16.33
2018-06-25T22:06:59.233Z,18.13
2018-06-25T22:09:27.858Z,11.97
2018-06-25T22:11:56.297Z,10.47
2018-06-25T22:14:24.933Z,11.77
2018-06-25T22:16:53.430Z,11.77
2018-06-25T22:19:21.888Z,15.40
2018-06-25T22:21:50.349Z,16.47
2018-06-25T22:24:18.895Z,11.63
2018-06-25T22:26:47.439Z,15.10
2018-06-25T22:29:15.944Z,13.10
2018-06-25T22:31:44.482Z,15.57
2018-06-25T22:34:12.980Z,13.57
2018-06-25T22:36:41.520Z,15.30
2018-06-25T22:39:12.403Z,12.73
2018-06-25T22:41:41.826Z,11.73
2018-06-25T22:44:11.882Z,11.00
2018-06-25T22:46:41.412Z,10.30
2018-06-25T22:49:10.343Z,13.80
2018-06-25T22:51:39.025Z,11.17
2018-06-25T22:54:08.176Z,12.83
2018-06-25T22:56:36.872Z,10.33
2018-06-25T22:59:05.830Z,12.70
2018-06-25T23:01:34.347Z,8.90
2018-06-25T23:04:02.813Z,6.43
2018-06-25T23:06:31.211Z,14.87
2018-06-25T23:09:00.375Z,10.97
2018-06-25T23:11:28.543Z,11.33
2018-06-25T23:13:57.099Z,14.30
2018-06-25T23:16:25.569Z,10.37
2018-06-25T23:18:54.142Z,8.30
2018-06-25T23:21:22.661Z,11.03
2018-06-25T23:23:51.116Z,12.03
2018-06-25T23:26:19.547Z,14.00
2018-06-25T23:28:48.085Z,8.37
2018-06-25T23:31:16.757Z,9.23
2018-06-25T23:33:45.267Z,14.37
2018-06-25T23:36:13.770Z,5.77
2018-06-25T23:38:42.452Z,9.77
2018-06-25T23:41:10.997Z,10.30
2018-06-25T23:43:39.154Z,6.73
2018-06-25T23:46:07.658Z,9.83
2018-06-25T23:48:35.908Z,8.00
2018-06-25T23:51:04.499Z,7.70
2018-06-25T23:53:32.915Z,6.87
2018-06-25T23:56:01.145Z,4.63
2018-06-25T23:58:29.666Z,10.40
